createdAt,value
2023-01-31T01:55:39.677Z,100.00
2023-01-31T01:58:13.097Z,100.00
2023-01-31T02:00:41.860Z,100.00
2023-01-31T02:03:08.832Z,100.00
2023-01-31T02:05:43.891Z,100.00
2023-01-31T02:08:12.418Z,100.00
2023-01-31T02:10:50.876Z,100.00
2023-01-31T02:13:18.000Z,100.00
2023-01-31T02:15:45.280Z,100.00
2023-01-31T02:18:12.166Z,100.00
2023-01-31T02:21:09.530Z,100.00
2023-01-31T02:23:39.587Z,100.00
2023-01-31T02:26:27.978Z,100.00
2023-01-31T02:29:16.617Z,100.00
2023-01-31T02:32:23.865Z,100.00
2023-01-31T02:35:27.759Z,100.00
2023-01-31T02:38:27.310Z,100.00
2023-01-31T02:40:55.109Z,100.00
2023-01-31T02:43:33.400Z,100.00
2023-01-31T02:46:07.131Z,100.00
2023-01-31T02:48:53.064Z,100.00
2023-01-31T02:51:26.415Z,100.00
2023-01-31T02:54:15.732Z,100.00
2023-01-31T02:56:43.057Z,100.00
2023-01-31T02:59:21.339Z,100.00
2023-01-31T03:01:54.855Z,100.00
2023-01-31T03:04:22.576Z,100.00
2023-01-31T03:06:59.183Z,100.00
2023-01-31T03:09:46.371Z,100.00
2023-01-31T03:12:20.804Z,100.00
2023-01-31T03:15:55.805Z,100.00
2023-01-31T03:18:25.867Z,100.00
2023-01-31T03:21:13.968Z,100.00
2023-01-31T03:23:40.936Z,100.00
2023-01-31T03:26:07.786Z,100.00
2023-01-31T03:28:39.813Z,100.00
2023-01-31T03:31:18.899Z,100.00
2023-01-31T03:33:48.173Z,100.00
2023-01-31T03:36:36.507Z,100.00
2023-01-31T03:39:34.924Z,100.00
2023-01-31T03:42:12.781Z,100.00
2023-01-31T03:44:50.711Z,100.00
2023-01-31T03:47:23.283Z,100.00
2023-01-31T03:49:51.270Z,100.00
2023-01-31T03:52:23.087Z,100.00
2023-01-31T03:54:54.344Z,100.00
2023-01-31T03:57:24.009Z,100.00
2023-01-31T03:59:53.635Z,100.00
2023-01-31T04:02:24.815Z,100.00
2023-01-31T04:04:56.327Z,100.00
2023-01-31T04:07:23.104Z,100.00
2023-01-31T04:09:52.279Z,100.00
2023-01-31T04:12:18.924Z,100.00
2023-01-31T04:14:48.516Z,100.00
2023-01-31T04:17:16.835Z,100.00
2023-01-31T04:19:43.558Z,100.00
2023-01-31T04:22:10.606Z,100.00
2023-01-31T04:24:37.160Z,100.00
2023-01-31T04:27:03.901Z,100.00
2023-01-31T04:29:30.890Z,100.00
2023-01-31T04:31:57.952Z,100.00
2023-01-31T04:34:25.351Z,100.00
2023-01-31T04:36:52.059Z,100.00
2023-01-31T04:39:18.655Z,100.00
2023-01-31T04:41:45.956Z,100.00
2023-01-31T04:44:13.029Z,100.00
2023-01-31T04:46:39.628Z,100.00
2023-01-31T04:49:06.341Z,100.00
2023-01-31T04:51:33.706Z,100.00
2023-01-31T04:54:02.362Z,100.00
2023-01-31T04:56:29.284Z,100.00
2023-01-31T04:58:56.765Z,100.00
2023-01-31T05:01:24.300Z,100.00
2023-01-31T05:03:51.064Z,100.00
2023-01-31T05:06:17.921Z,100.00
2023-01-31T05:08:44.539Z,100.00
2023-01-31T05:11:15.249Z,100.00
2023-01-31T05:13:42.177Z,100.00
2023-01-31T05:16:11.016Z,100.00
2023-01-31T05:18:38.209Z,100.00
2023-01-31T05:21:08.309Z,100.00
2023-01-31T05:23:35.189Z,100.00
2023-01-31T05:26:01.970Z,100.00
2023-01-31T05:28:28.960Z,100.00
2023-01-31T05:31:01.607Z,100.00
2023-01-31T05:33:31.374Z,100.00
2023-01-31T05:35:59.607Z,100.00
2023-01-31T05:38:27.401Z,100.00
2023-01-31T05:40:57.114Z,100.00
2023-01-31T05:43:24.033Z,100.00
2023-01-31T05:45:50.624Z,100.00
2023-01-31T05:48:17.287Z,100.00
2023-01-31T05:50:43.964Z,100.00
2023-01-31T05:53:11.152Z,100.00
2023-01-31T05:55:37.926Z,100.00
2023-01-31T05:58:04.909Z,100.00
2023-01-31T06:00:32.167Z,100.00
2023-01-31T06:02:59.692Z,100.00
2023-01-31T06:05:26.960Z,100.00
2023-01-31T06:07:53.895Z,100.00
2023-01-31T06:10:21.753Z,100.00
2023-01-31T06:12:48.548Z,100.00
2023-01-31T06:15:16.586Z,100.00
2023-01-31T06:17:44.221Z,100.00
2023-01-31T06:20:13.215Z,100.00
2023-01-31T06:22:40.718Z,100.00
2023-01-31T06:25:08.085Z,100.00
2023-01-31T06:27:35.565Z,100.00
2023-01-31T06:30:02.933Z,100.00
2023-01-31T06:32:30.550Z,100.00
2023-01-31T06:34:57.470Z,100.00
2023-01-31T06:37:24.181Z,100.00
2023-01-31T06:39:50.956Z,100.00
2023-01-31T06:42:18.373Z,100.00
2023-01-31T06:44:46.193Z,100.00
2023-01-31T06:47:14.069Z,100.00
2023-01-31T06:49:41.015Z,100.00
2023-01-31T06:52:09.133Z,100.00
2023-01-31T06:54:36.288Z,100.00
2023-01-31T06:57:03.022Z,100.00
2023-01-31T06:59:32.828Z,100.00
2023-01-31T07:01:59.975Z,100.00
2023-01-31T07:04:26.664Z,100.00
2023-01-31T07:06:54.030Z,100.00
2023-01-31T07:09:20.749Z,100.00
2023-01-31T07:11:47.353Z,100.00
2023-01-31T07:14:21.181Z,100.00
2023-01-31T07:16:48.536Z,100.00
2023-01-31T07:19:15.714Z,100.00
2023-01-31T07:21:43.841Z,100.00
2023-01-31T07:24:10.508Z,100.00
2023-01-31T07:26:38.464Z,100.00
2023-01-31T07:29:05.103Z,100.00
2023-01-31T07:31:32.431Z,100.00
2023-01-31T07:33:59.532Z,100.00
2023-01-31T07:36:26.808Z,100.00
2023-01-31T07:38:55.311Z,100.00
2023-01-31T07:41:23.081Z,100.00
2023-01-31T07:43:51.400Z,100.00
2023-01-31T07:46:19.914Z,100.00
2023-01-31T07:48:46.592Z,100.00
2023-01-31T07:51:13.286Z,100.00
2023-01-31T07:53:43.439Z,100.00
2023-01-31T07:56:14.927Z,100.00
2023-01-31T07:58:42.872Z,100.00
2023-01-31T08:01:32.354Z,100.00
2023-01-31T11:43:24.659Z,100.00
2023-01-31T11:45:59.051Z,100.00
2023-01-31T11:48:43.708Z,100.00
2023-01-31T11:51:26.698Z,100.00
2023-01-31T11:53:53.535Z,100.00
2023-01-31T11:56:30.983Z,100.00
2023-01-31T11:59:02.033Z,100.00
2023-01-31T12:01:30.182Z,100.00
2023-01-31T12:04:04.645Z,100.00
2023-01-31T12:06:38.102Z,100.00
2023-01-31T12:09:19.149Z,100.00
2023-01-31T12:11:54.193Z,100.00
2023-01-31T12:14:24.958Z,100.00
2023-01-31T12:16:54.612Z,100.00
2023-01-31T12:19:46.446Z,100.00
2023-01-31T12:22:21.150Z,100.00
2023-01-31T12:24:56.190Z,100.00
2023-01-31T12:28:00.990Z,100.00
2023-01-31T12:30:52.236Z,100.00
2023-01-31T12:33:39.062Z,100.00
2023-01-31T12:36:15.337Z,100.00
2023-01-31T12:39:13.419Z,100.00
2023-01-31T12:41:46.532Z,100.00
2023-01-31T12:44:23.868Z,100.00
2023-01-31T12:47:10.899Z,100.00
2023-01-31T12:50:08.789Z,100.00
2023-01-31T12:52:38.947Z,100.00
2023-01-31T12:55:13.264Z,100.00
2023-01-31T12:57:52.861Z,100.00
2023-01-31T13:00:32.518Z,100.00
2023-01-31T13:03:38.077Z,100.00
2023-01-31T13:06:28.403Z,100.00
2023-01-31T13:09:07.765Z,100.00
2023-01-31T13:12:06.515Z,100.00
2023-01-31T13:14:46.327Z,100.00
2023-01-31T13:17:14.593Z,100.00
2023-01-31T13:20:11.209Z,100.00
2023-01-31T13:22:48.976Z,99.99
2023-01-31T13:25:28.056Z,99.98
2023-01-31T13:28:19.044Z,99.91
2023-01-31T13:30:51.364Z,99.93
2023-01-31T13:33:22.815Z,100.00
2023-01-31T13:36:00.248Z,100.00
2023-01-31T13:38:30.230Z,100.00
2023-01-31T13:40:56.959Z,99.99
2023-01-31T13:43:23.861Z,99.98
2023-01-31T13:45:58.694Z,99.87
2023-01-31T13:48:30.940Z,99.67
2023-01-31T13:51:01.244Z,99.76
2023-01-31T13:53:36.407Z,99.67
2023-01-31T13:56:04.608Z,99.76
2023-01-31T13:58:34.427Z,99.79
2023-01-31T14:01:23.908Z,99.46
2023-01-31T14:04:14.113Z,99.20
2023-01-31T14:06:53.712Z,98.90
2023-01-31T14:09:35.917Z,98.51
2023-01-31T14:12:08.778Z,98.48
2023-01-31T14:14:46.521Z,98.29
2023-01-31T14:17:13.257Z,98.32
2023-01-31T14:19:43.688Z,98.44
2023-01-31T14:22:19.712Z,98.53
2023-01-31T14:24:46.487Z,98.69
2023-01-31T14:27:20.280Z,98.26
2023-01-31T14:30:08.754Z,97.92
2023-01-31T14:32:44.371Z,97.48
2023-01-31T14:35:22.059Z,97.13
2023-01-31T14:38:01.603Z,97.43
2023-01-31T14:40:59.519Z,97.72
2023-01-31T14:43:45.166Z,97.71
2023-01-31T14:46:29.019Z,97.69
2023-01-31T14:49:14.863Z,97.54
2023-01-31T14:52:04.960Z,97.32
2023-01-31T14:55:15.747Z,97.23
2023-01-31T14:57:47.210Z,97.14
2023-01-31T15:00:13.941Z,97.25
2023-01-31T15:02:43.710Z,97.29
2023-01-31T15:05:19.735Z,97.18
2023-01-31T15:08:07.030Z,97.04
2023-01-31T15:10:52.615Z,96.63
2023-01-31T15:13:34.555Z,96.57
2023-01-31T15:16:06.352Z,96.54
2023-01-31T15:18:33.571Z,96.66
2023-01-31T15:21:03.413Z,96.65
2023-01-31T15:23:31.459Z,96.74
2023-01-31T15:25:59.269Z,96.96
2023-01-31T15:28:28.583Z,97.09
2023-01-31T15:30:57.133Z,97.09
2023-01-31T15:33:40.753Z,97.00
2023-01-31T15:36:14.951Z,96.74
2023-01-31T15:38:48.624Z,96.53
2023-01-31T15:41:24.558Z,96.53
2023-01-31T15:43:56.224Z,96.58
2023-01-31T15:46:30.813Z,96.51
2023-01-31T15:48:58.901Z,96.56
2023-01-31T15:51:26.363Z,96.76
2023-01-31T15:54:05.261Z,96.92
2023-01-31T19:40:52.269Z,100.00
2023-01-31T19:43:21.328Z,100.00
2023-01-31T19:45:49.761Z,100.00
2023-01-31T19:48:18.902Z,100.00
2023-01-31T19:50:48.155Z,100.00
2023-01-31T19:53:16.110Z,100.00
2023-01-31T19:55:44.381Z,100.00
2023-01-31T19:58:12.590Z,100.00
2023-01-31T20:00:41.060Z,100.00
2023-01-31T20:03:09.282Z,100.00
2023-01-31T20:05:39.203Z,100.00
2023-01-31T20:08:07.905Z,100.00
2023-01-31T20:10:36.151Z,100.00
2023-01-31T20:13:04.752Z,100.00
2023-01-31T20:15:33.964Z,100.00
2023-01-31T20:18:02.313Z,100.00
2023-01-31T20:20:31.077Z,100.00
2023-01-31T20:22:59.478Z,100.00
2023-01-31T20:25:28.191Z,100.00
2023-01-31T20:27:56.286Z,100.00
2023-01-31T20:30:24.452Z,100.00
2023-01-31T20:32:52.794Z,100.00
2023-01-31T20:35:21.182Z,100.00
2023-01-31T20:37:49.242Z,100.00
2023-01-31T20:40:17.907Z,100.00
2023-01-31T20:42:46.651Z,100.00
2023-01-31T20:45:15.300Z,100.00
2023-01-31T20:47:43.609Z,100.00
2023-01-31T20:50:11.973Z,100.00
2023-01-31T20:52:40.244Z,100.00
2023-01-31T20:55:09.642Z,100.00
2023-01-31T20:57:37.804Z,100.00
2023-01-31T21:00:07.963Z,100.00
2023-01-31T21:02:36.273Z,100.00
2023-01-31T21:05:05.011Z,100.00
2023-01-31T21:07:33.158Z,100.00
2023-01-31T21:10:01.624Z,100.00
2023-01-31T21:12:33.139Z,100.00
2023-01-31T21:15:01.280Z,100.00
2023-01-31T21:17:39.614Z,100.00
2023-01-31T21:20:11.075Z,100.00
2023-01-31T21:22:39.101Z,100.00
2023-01-31T21:25:09.175Z,100.00
2023-01-31T21:27:37.372Z,100.00
2023-01-31T21:30:06.500Z,100.00
2023-01-31T21:32:34.567Z,100.00
2023-01-31T21:35:03.532Z,100.00
2023-01-31T21:37:32.176Z,100.00
2023-01-31T21:40:00.215Z,100.00
2023-01-31T21:42:28.292Z,100.00
2023-01-31T21:44:56.308Z,100.00
2023-01-31T21:47:24.478Z,100.00
2023-01-31T21:49:52.655Z,100.00
2023-01-31T21:52:20.814Z,100.00
2023-01-31T23:58:55.916Z,100.00
